sensor_id;sensor_type;location;lat;lon;timestamp;temperature;humidity
38480;DHT22;53952;51.980;5.934;2022-07-17T00:00:13;25.00;45.40
38480;DHT22;53952;51.980;5.934;2022-07-17T00:02:39;25.00;45.40
38480;DHT22;53952;51.980;5.934;2022-07-17T00:05:05;25.00;45.40
38480;DHT22;53952;51.980;5.934;2022-07-17T00:07:31;25.00;45.40
38480;DHT22;53952;51.980;5.934;2022-07-17T00:09:57;25.00;45.40
38480;DHT22;53952;51.980;5.934;2022-07-17T00:12:23;25.00;45.40
38480;DHT22;53952;51.980;5.934;2022-07-17T00:14:48;25.00;45.50
38480;DHT22;53952;51.980;5.934;2022-07-17T00:17:14;24.90;45.40
38480;DHT22;53952;51.980;5.934;2022-07-17T00:19:41;25.00;45.50
38480;DHT22;53952;51.980;5.934;2022-07-17T00:22:07;24.90;46.00
38480;DHT22;53952;51.980;5.934;2022-07-17T00:24:32;24.90;45.40
38480;DHT22;53952;51.980;5.934;2022-07-17T00:26:58;24.90;45.50
38480;DHT22;53952;51.980;5.934;2022-07-17T00:29:24;24.80;45.40
38480;DHT22;53952;51.980;5.934;2022-07-17T00:31:50;24.80;45.40
38480;DHT22;53952;51.980;5.934;2022-07-17T00:34:15;24.80;45.40
38480;DHT22;53952;51.980;5.934;2022-07-17T00:36:42;24.80;45.50
38480;DHT22;53952;51.980;5.934;2022-07-17T00:39:08;24.80;45.50
38480;DHT22;53952;51.980;5.934;2022-07-17T00:41:34;24.80;45.50
38480;DHT22;53952;51.980;5.934;2022-07-17T00:44:10;24.70;45.50
38480;DHT22;53952;51.980;5.934;2022-07-17T00:46:38;24.70;45.40
38480;DHT22;53952;51.980;5.934;2022-07-17T00:49:05;24.70;45.50
38480;DHT22;53952;51.980;5.934;2022-07-17T00:51:31;24.70;45.50
38480;DHT22;53952;51.980;5.934;2022-07-17T00:53:58;24.70;45.60
38480;DHT22;53952;51.980;5.934;2022-07-17T00:56:24;24.70;45.50
38480;DHT22;53952;51.980;5.934;2022-07-17T00:58:52;24.70;45.60
38480;DHT22;53952;51.980;5.934;2022-07-17T01:01:18;24.70;45.60
38480;DHT22;53952;51.980;5.934;2022-07-17T01:03:44;24.60;45.60
38480;DHT22;53952;51.980;5.934;2022-07-17T01:06:10;24.60;45.60
38480;DHT22;53952;51.980;5.934;2022-07-17T01:08:36;24.60;45.60
38480;DHT22;53952;51.980;5.934;2022-07-17T01:11:03;24.60;45.60
38480;DHT22;53952;51.980;5.934;2022-07-17T01:13:30;24.60;45.60
38480;DHT22;53952;51.980;5.934;2022-07-17T01:15:56;24.60;45.60
38480;DHT22;53952;51.980;5.934;2022-07-17T01:18:23;24.60;45.70
38480;DHT22;53952;51.980;5.934;2022-07-17T01:20:50;24.60;45.70
38480;DHT22;53952;51.980;5.934;2022-07-17T01:23:18;24.50;45.60
38480;DHT22;53952;51.980;5.934;2022-07-17T01:25:45;24.50;45.70
38480;DHT22;53952;51.980;5.934;2022-07-17T01:28:12;24.50;45.70
38480;DHT22;53952;51.980;5.934;2022-07-17T01:30:48;24.50;45.70
38480;DHT22;53952;51.980;5.934;2022-07-17T01:33:14;24.50;45.70
38480;DHT22;53952;51.980;5.934;2022-07-17T01:35:40;24.50;45.70
38480;DHT22;53952;51.980;5.934;2022-07-17T01:38:06;24.40;45.70
38480;DHT22;53952;51.980;5.934;2022-07-17T01:40:32;24.40;45.70
38480;DHT22;53952;51.980;5.934;2022-07-17T01:42:57;24.40;45.80
38480;DHT22;53952;51.980;5.934;2022-07-17T01:45:23;24.40;45.80
38480;DHT22;53952;51.980;5.934;2022-07-17T01:47:49;24.40;45.80
38480;DHT22;53952;51.980;5.934;2022-07-17T01:50:15;24.40;45.80
38480;DHT22;53952;51.980;5.934;2022-07-17T01:52:43;24.40;45.90
38480;DHT22;53952;51.980;5.934;2022-07-17T01:55:11;24.40;45.90
38480;DHT22;53952;51.980;5.934;2022-07-17T01:57:37;24.30;45.90
38480;DHT22;53952;51.980;5.934;2022-07-17T02:00:08;24.30;45.90
38480;DHT22;53952;51.980;5.934;2022-07-17T02:02:35;24.30;45.80
38480;DHT22;53952;51.980;5.934;2022-07-17T02:05:01;24.30;45.90
38480;DHT22;53952;51.980;5.934;2022-07-17T02:07:27;24.30;45.90
38480;DHT22;53952;51.980;5.934;2022-07-17T02:09:52;24.30;45.90
38480;DHT22;53952;51.980;5.934;2022-07-17T02:12:19;24.20;45.90
38480;DHT22;53952;51.980;5.934;2022-07-17T02:14:44;24.20;46.00
38480;DHT22;53952;51.980;5.934;2022-07-17T02:17:10;24.20;45.90
38480;DHT22;53952;51.980;5.934;2022-07-17T02:19:36;24.20;45.90
38480;DHT22;53952;51.980;5.934;2022-07-17T02:22:02;24.20;45.90
38480;DHT22;53952;51.980;5.934;2022-07-17T02:24:28;24.20;46.00
38480;DHT22;53952;51.980;5.934;2022-07-17T02:26:54;24.20;46.00
38480;DHT22;53952;51.980;5.934;2022-07-17T02:29:19;24.20;46.00
38480;DHT22;53952;51.980;5.934;2022-07-17T02:31:46;24.20;46.00
38480;DHT22;53952;51.980;5.934;2022-07-17T02:34:12;24.10;46.00
38480;DHT22;53952;51.980;5.934;2022-07-17T02:36:37;24.10;46.00
38480;DHT22;53952;51.980;5.934;2022-07-17T02:39:03;24.10;46.00
38480;DHT22;53952;51.980;5.934;2022-07-17T02:41:29;24.10;46.00
38480;DHT22;53952;51.980;5.934;2022-07-17T02:43:54;24.10;46.00
38480;DHT22;53952;51.980;5.934;2022-07-17T02:46:20;24.10;46.10
38480;DHT22;53952;51.980;5.934;2022-07-17T02:48:45;24.10;46.10
38480;DHT22;53952;51.980;5.934;2022-07-17T02:51:11;24.10;46.20
38480;DHT22;53952;51.980;5.934;2022-07-17T02:53:37;24.10;46.20
38480;DHT22;53952;51.980;5.934;2022-07-17T02:56:03;24.00;46.20
38480;DHT22;53952;51.980;5.934;2022-07-17T02:58:28;24.00;46.20
38480;DHT22;53952;51.980;5.934;2022-07-17T03:00:54;24.00;46.20
38480;DHT22;53952;51.980;5.934;2022-07-17T03:03:20;24.00;46.20
38480;DHT22;53952;51.980;5.934;2022-07-17T03:05:47;24.00;46.20
38480;DHT22;53952;51.980;5.934;2022-07-17T03:08:13;24.00;46.30
38480;DHT22;53952;51.980;5.934;2022-07-17T03:10:39;24.00;46.30
38480;DHT22;53952;51.980;5.934;2022-07-17T03:13:05;24.00;46.30
38480;DHT22;53952;51.980;5.934;2022-07-17T03:15:31;23.90;46.20
38480;DHT22;53952;51.980;5.934;2022-07-17T03:17:57;23.90;46.20
38480;DHT22;53952;51.980;5.934;2022-07-17T03:20:23;23.90;46.20
38480;DHT22;53952;51.980;5.934;2022-07-17T03:22:49;23.90;46.30
38480;DHT22;53952;51.980;5.934;2022-07-17T03:25:14;23.90;46.30
38480;DHT22;53952;51.980;5.934;2022-07-17T03:27:40;23.90;46.30
38480;DHT22;53952;51.980;5.934;2022-07-17T03:30:06;23.90;46.40
38480;DHT22;53952;51.980;5.934;2022-07-17T03:32:32;23.90;46.40
38480;DHT22;53952;51.980;5.934;2022-07-17T03:34:58;23.90;46.40
38480;DHT22;53952;51.980;5.934;2022-07-17T03:37:23;23.90;46.40
38480;DHT22;53952;51.980;5.934;2022-07-17T03:39:50;23.80;46.30
38480;DHT22;53952;51.980;5.934;2022-07-17T03:42:16;23.80;46.30
38480;DHT22;53952;51.980;5.934;2022-07-17T03:44:41;23.80;46.30
38480;DHT22;53952;51.980;5.934;2022-07-17T03:47:07;23.80;46.30
38480;DHT22;53952;51.980;5.934;2022-07-17T03:49:33;23.80;46.30
38480;DHT22;53952;51.980;5.934;2022-07-17T03:51:58;23.80;46.40
38480;DHT22;53952;51.980;5.934;2022-07-17T03:54:24;23.80;46.40
38480;DHT22;53952;51.980;5.934;2022-07-17T03:56:49;23.80;46.50
38480;DHT22;53952;51.980;5.934;2022-07-17T03:59:15;23.70;46.40
38480;DHT22;53952;51.980;5.934;2022-07-17T04:01:41;23.70;46.40
38480;DHT22;53952;51.980;5.934;2022-07-17T04:04:06;23.70;46.50
38480;DHT22;53952;51.980;5.934;2022-07-17T04:06:32;23.70;46.50
38480;DHT22;53952;51.980;5.934;2022-07-17T04:08:58;23.70;46.60
38480;DHT22;53952;51.980;5.934;2022-07-17T04:11:23;23.70;46.60
38480;DHT22;53952;51.980;5.934;2022-07-17T04:13:49;23.70;46.60
38480;DHT22;53952;51.980;5.934;2022-07-17T04:16:14;23.70;46.70
38480;DHT22;53952;51.980;5.934;2022-07-17T04:18:40;23.70;46.70
38480;DHT22;53952;51.980;5.934;2022-07-17T04:21:09;23.70;46.70
38480;DHT22;53952;51.980;5.934;2022-07-17T04:23:35;23.70;46.70
38480;DHT22;53952;51.980;5.934;2022-07-17T04:26:02;23.70;46.70
38480;DHT22;53952;51.980;5.934;2022-07-17T04:28:28;23.70;46.70
38480;DHT22;53952;51.980;5.934;2022-07-17T04:30:53;23.60;46.60
38480;DHT22;53952;51.980;5.934;2022-07-17T04:33:19;23.60;46.60
38480;DHT22;53952;51.980;5.934;2022-07-17T04:35:45;23.60;46.60
38480;DHT22;53952;51.980;5.934;2022-07-17T04:38:11;23.60;46.60
38480;DHT22;53952;51.980;5.934;2022-07-17T04:40:37;23.60;46.70
38480;DHT22;53952;51.980;5.934;2022-07-17T04:43:04;23.60;46.70
38480;DHT22;53952;51.980;5.934;2022-07-17T04:45:30;23.60;46.80
38480;DHT22;53952;51.980;5.934;2022-07-17T04:47:56;23.50;46.80
38480;DHT22;53952;51.980;5.934;2022-07-17T04:50:22;23.60;46.80
38480;DHT22;53952;51.980;5.934;2022-07-17T04:52:48;23.60;46.80
38480;DHT22;53952;51.980;5.934;2022-07-17T04:55:13;23.60;46.80
38480;DHT22;53952;51.980;5.934;2022-07-17T04:57:39;23.60;46.80
38480;DHT22;53952;51.980;5.934;2022-07-17T05:00:07;23.60;46.80
38480;DHT22;53952;51.980;5.934;2022-07-17T05:02:33;23.60;46.90
38480;DHT22;53952;51.980;5.934;2022-07-17T05:04:58;23.50;46.80
38480;DHT22;53952;51.980;5.934;2022-07-17T05:07:24;23.50;46.90
38480;DHT22;53952;51.980;5.934;2022-07-17T05:09:50;23.50;46.90
38480;DHT22;53952;51.980;5.934;2022-07-17T05:12:16;23.50;46.90
38480;DHT22;53952;51.980;5.934;2022-07-17T05:14:41;23.50;46.90
38480;DHT22;53952;51.980;5.934;2022-07-17T05:17:07;23.50;46.90
38480;DHT22;53952;51.980;5.934;2022-07-17T05:19:33;23.50;46.90
38480;DHT22;53952;51.980;5.934;2022-07-17T05:21:59;23.50;46.90
38480;DHT22;53952;51.980;5.934;2022-07-17T05:24:24;23.50;46.90
38480;DHT22;53952;51.980;5.934;2022-07-17T05:26:50;23.50;46.90
38480;DHT22;53952;51.980;5.934;2022-07-17T05:29:16;23.50;47.50
38480;DHT22;53952;51.980;5.934;2022-07-17T05:31:41;23.50;46.90
38480;DHT22;53952;51.980;5.934;2022-07-17T05:34:07;23.50;47.00
38480;DHT22;53952;51.980;5.934;2022-07-17T05:36:33;23.50;47.00
38480;DHT22;53952;51.980;5.934;2022-07-17T05:38:59;23.50;47.00
38480;DHT22;53952;51.980;5.934;2022-07-17T05:41:24;23.50;47.00
38480;DHT22;53952;51.980;5.934;2022-07-17T05:43:50;23.40;46.90
38480;DHT22;53952;51.980;5.934;2022-07-17T05:46:16;23.50;47.00
38480;DHT22;53952;51.980;5.934;2022-07-17T05:48:41;23.50;47.00
38480;DHT22;53952;51.980;5.934;2022-07-17T05:51:07;23.50;47.00
38480;DHT22;53952;51.980;5.934;2022-07-17T05:53:33;23.50;46.90
38480;DHT22;53952;51.980;5.934;2022-07-17T05:55:59;23.50;46.90
38480;DHT22;53952;51.980;5.934;2022-07-17T05:58:25;23.50;46.90
38480;DHT22;53952;51.980;5.934;2022-07-17T06:00:50;23.50;46.90
38480;DHT22;53952;51.980;5.934;2022-07-17T06:03:17;23.50;46.90
38480;DHT22;53952;51.980;5.934;2022-07-17T06:05:43;23.50;46.90
38480;DHT22;53952;51.980;5.934;2022-07-17T06:08:08;23.50;46.90
38480;DHT22;53952;51.980;5.934;2022-07-17T06:10:34;23.50;46.80
38480;DHT22;53952;51.980;5.934;2022-07-17T06:13:00;23.50;46.80
38480;DHT22;53952;51.980;5.934;2022-07-17T06:15:26;23.50;46.80
38480;DHT22;53952;51.980;5.934;2022-07-17T06:17:52;23.50;46.90
38480;DHT22;53952;51.980;5.934;2022-07-17T06:20:18;23.50;46.90
38480;DHT22;53952;51.980;5.934;2022-07-17T06:22:44;23.50;46.80
38480;DHT22;53952;51.980;5.934;2022-07-17T06:25:11;23.50;46.80
38480;DHT22;53952;51.980;5.934;2022-07-17T06:27:40;23.50;46.80
38480;DHT22;53952;51.980;5.934;2022-07-17T06:30:11;23.60;46.80
38480;DHT22;53952;51.980;5.934;2022-07-17T06:32:37;23.60;46.80
38480;DHT22;53952;51.980;5.934;2022-07-17T06:35:03;23.50;46.80
38480;DHT22;53952;51.980;5.934;2022-07-17T06:37:29;23.60;46.80
38480;DHT22;53952;51.980;5.934;2022-07-17T06:39:55;23.60;46.80
38480;DHT22;53952;51.980;5.934;2022-07-17T06:42:21;23.60;46.80
38480;DHT22;53952;51.980;5.934;2022-07-17T06:44:47;23.60;46.80
38480;DHT22;53952;51.980;5.934;2022-07-17T06:47:13;23.60;46.90
38480;DHT22;53952;51.980;5.934;2022-07-17T06:49:38;23.60;46.90
38480;DHT22;53952;51.980;5.934;2022-07-17T06:52:04;23.60;46.90
38480;DHT22;53952;51.980;5.934;2022-07-17T06:54:31;23.60;46.90
38480;DHT22;53952;51.980;5.934;2022-07-17T06:56:56;23.60;46.90
38480;DHT22;53952;51.980;5.934;2022-07-17T06:59:22;23.60;46.80
38480;DHT22;53952;51.980;5.934;2022-07-17T07:01:48;23.70;46.90
38480;DHT22;53952;51.980;5.934;2022-07-17T07:04:13;23.70;46.90
38480;DHT22;53952;51.980;5.934;2022-07-17T07:06:39;23.70;46.90
38480;DHT22;53952;51.980;5.934;2022-07-17T07:09:05;23.70;46.90
38480;DHT22;53952;51.980;5.934;2022-07-17T07:11:31;23.70;46.90
38480;DHT22;53952;51.980;5.934;2022-07-17T07:13:56;23.80;46.90
38480;DHT22;53952;51.980;5.934;2022-07-17T07:16:22;23.70;46.80
38480;DHT22;53952;51.980;5.934;2022-07-17T07:18:48;23.80;46.90
38480;DHT22;53952;51.980;5.934;2022-07-17T07:21:14;23.80;46.90
38480;DHT22;53952;51.980;5.934;2022-07-17T07:23:39;23.80;46.90
38480;DHT22;53952;51.980;5.934;2022-07-17T07:26:05;23.80;47.00
38480;DHT22;53952;51.980;5.934;2022-07-17T07:28:31;23.80;47.00
38480;DHT22;53952;51.980;5.934;2022-07-17T07:30:58;23.80;47.00
38480;DHT22;53952;51.980;5.934;2022-07-17T07:33:24;23.80;47.00
38480;DHT22;53952;51.980;5.934;2022-07-17T07:35:50;23.80;47.40
38480;DHT22;53952;51.980;5.934;2022-07-17T07:38:15;23.80;46.80
38480;DHT22;53952;51.980;5.934;2022-07-17T07:40:41;23.80;46.80
38480;DHT22;53952;51.980;5.934;2022-07-17T07:43:07;23.80;46.80
38480;DHT22;53952;51.980;5.934;2022-07-17T07:45:32;23.80;46.70
38480;DHT22;53952;51.980;5.934;2022-07-17T07:47:58;23.80;46.60
38480;DHT22;53952;51.980;5.934;2022-07-17T07:50:25;23.80;46.60
38480;DHT22;53952;51.980;5.934;2022-07-17T07:52:51;23.80;46.60
38480;DHT22;53952;51.980;5.934;2022-07-17T07:55:18;23.70;46.40
38480;DHT22;53952;51.980;5.934;2022-07-17T07:57:44;23.70;46.40
38480;DHT22;53952;51.980;5.934;2022-07-17T08:00:10;23.60;46.30
38480;DHT22;53952;51.980;5.934;2022-07-17T08:02:37;23.60;46.30
38480;DHT22;53952;51.980;5.934;2022-07-17T08:05:04;23.60;46.40
38480;DHT22;53952;51.980;5.934;2022-07-17T08:07:30;23.60;46.30
38480;DHT22;53952;51.980;5.934;2022-07-17T08:09:57;23.60;46.30
38480;DHT22;53952;51.980;5.934;2022-07-17T08:12:23;23.60;46.30
38480;DHT22;53952;51.980;5.934;2022-07-17T08:14:50;23.50;46.20
38480;DHT22;53952;51.980;5.934;2022-07-17T08:17:16;23.50;46.10
38480;DHT22;53952;51.980;5.934;2022-07-17T08:19:42;23.50;46.10
38480;DHT22;53952;51.980;5.934;2022-07-17T08:22:07;23.50;46.10
38480;DHT22;53952;51.980;5.934;2022-07-17T08:24:33;23.50;46.00
38480;DHT22;53952;51.980;5.934;2022-07-17T08:26:58;23.50;46.00
38480;DHT22;53952;51.980;5.934;2022-07-17T08:34:43;23.50;45.70
38480;DHT22;53952;51.980;5.934;2022-07-17T08:39:37;23.50;45.70
38480;DHT22;53952;51.980;5.934;2022-07-17T08:42:03;23.50;45.70
38480;DHT22;53952;51.980;5.934;2022-07-17T08:44:29;23.50;45.60
38480;DHT22;53952;51.980;5.934;2022-07-17T08:46:55;23.40;45.50
38480;DHT22;53952;51.980;5.934;2022-07-17T08:49:21;23.50;45.50
38480;DHT22;53952;51.980;5.934;2022-07-17T08:51:49;23.50;46.00
38480;DHT22;53952;51.980;5.934;2022-07-17T08:54:15;23.50;46.50
38480;DHT22;53952;51.980;5.934;2022-07-17T08:56:41;23.50;46.80
38480;DHT22;53952;51.980;5.934;2022-07-17T08:59:07;23.50;47.30
38480;DHT22;53952;51.980;5.934;2022-07-17T09:01:33;23.50;47.60
38480;DHT22;53952;51.980;5.934;2022-07-17T09:04:03;23.60;48.00
38480;DHT22;53952;51.980;5.934;2022-07-17T09:06:34;23.60;48.00
38480;DHT22;53952;51.980;5.934;2022-07-17T09:09:09;23.60;48.00
38480;DHT22;53952;51.980;5.934;2022-07-17T09:12:01;23.60;48.10
38480;DHT22;53952;51.980;5.934;2022-07-17T09:14:39;23.50;47.90
38480;DHT22;53952;51.980;5.934;2022-07-17T09:17:08;23.50;47.80
38480;DHT22;53952;51.980;5.934;2022-07-17T09:19:35;23.40;47.90
38480;DHT22;53952;51.980;5.934;2022-07-17T09:22:17;23.40;48.10
38480;DHT22;53952;51.980;5.934;2022-07-17T09:24:54;23.40;48.30
38480;DHT22;53952;51.980;5.934;2022-07-17T09:32:22;23.40;48.90
38480;DHT22;53952;51.980;5.934;2022-07-17T09:34:53;23.40;48.80
38480;DHT22;53952;51.980;5.934;2022-07-17T09:37:22;23.30;48.60
38480;DHT22;53952;51.980;5.934;2022-07-17T09:39:49;23.40;48.50
38480;DHT22;53952;51.980;5.934;2022-07-17T09:42:31;23.40;48.30
38480;DHT22;53952;51.980;5.934;2022-07-17T09:45:09;23.40;48.00
38480;DHT22;53952;51.980;5.934;2022-07-17T09:47:37;23.40;48.10
38480;DHT22;53952;51.980;5.934;2022-07-17T09:50:07;23.40;48.20
38480;DHT22;53952;51.980;5.934;2022-07-17T09:52:35;23.40;48.10
38480;DHT22;53952;51.980;5.934;2022-07-17T09:55:02;23.40;47.80
38480;DHT22;53952;51.980;5.934;2022-07-17T09:57:31;23.40;48.00
38480;DHT22;53952;51.980;5.934;2022-07-17T10:00:06;23.40;48.10
38480;DHT22;53952;51.980;5.934;2022-07-17T10:02:33;23.50;48.20
38480;DHT22;53952;51.980;5.934;2022-07-17T10:04:59;23.40;48.20
38480;DHT22;53952;51.980;5.934;2022-07-17T10:07:26;23.50;48.50
38480;DHT22;53952;51.980;5.934;2022-07-17T10:09:52;23.50;48.60
38480;DHT22;53952;51.980;5.934;2022-07-17T10:12:18;23.50;48.50
38480;DHT22;53952;51.980;5.934;2022-07-17T10:14:47;23.50;48.70
38480;DHT22;53952;51.980;5.934;2022-07-17T10:17:14;23.50;48.80
38480;DHT22;53952;51.980;5.934;2022-07-17T10:19:55;23.50;48.90
38480;DHT22;53952;51.980;5.934;2022-07-17T10:22:21;23.60;48.70
38480;DHT22;53952;51.980;5.934;2022-07-17T10:24:56;23.60;48.70
38480;DHT22;53952;51.980;5.934;2022-07-17T10:27:26;23.60;48.60
38480;DHT22;53952;51.980;5.934;2022-07-17T10:30:10;23.60;48.60
38480;DHT22;53952;51.980;5.934;2022-07-17T10:32:37;23.70;48.50
38480;DHT22;53952;51.980;5.934;2022-07-17T10:35:07;23.70;48.50
38480;DHT22;53952;51.980;5.934;2022-07-17T10:37:39;23.70;48.70
38480;DHT22;53952;51.980;5.934;2022-07-17T10:42:58;23.80;48.80
38480;DHT22;53952;51.980;5.934;2022-07-17T10:45:36;24.40;47.70
38480;DHT22;53952;51.980;5.934;2022-07-17T10:50:54;24.90;47.30
38480;DHT22;53952;51.980;5.934;2022-07-17T10:53:31;25.00;47.20
38480;DHT22;53952;51.980;5.934;2022-07-17T10:56:05;25.10;47.00
38480;DHT22;53952;51.980;5.934;2022-07-17T10:58:42;25.20;47.00
38480;DHT22;53952;51.980;5.934;2022-07-17T11:01:19;25.30;47.00
38480;DHT22;53952;51.980;5.934;2022-07-17T11:03:48;25.30;46.60
38480;DHT22;53952;51.980;5.934;2022-07-17T11:06:21;25.40;46.00
38480;DHT22;53952;51.980;5.934;2022-07-17T11:11:21;25.50;45.10
38480;DHT22;53952;51.980;5.934;2022-07-17T11:13:48;25.60;45.00
38480;DHT22;53952;51.980;5.934;2022-07-17T11:16:24;25.60;44.80
38480;DHT22;53952;51.980;5.934;2022-07-17T11:18:50;25.70;44.50
38480;DHT22;53952;51.980;5.934;2022-07-17T11:21:16;25.70;44.20
38480;DHT22;53952;51.980;5.934;2022-07-17T11:23:51;25.80;44.20
38480;DHT22;53952;51.980;5.934;2022-07-17T11:26:18;25.90;44.00
38480;DHT22;53952;51.980;5.934;2022-07-17T11:28:44;25.90;43.80
38480;DHT22;53952;51.980;5.934;2022-07-17T11:33:54;26.00;43.80
38480;DHT22;53952;51.980;5.934;2022-07-17T11:36:45;26.10;43.80
38480;DHT22;53952;51.980;5.934;2022-07-17T11:39:16;26.10;43.90
38480;DHT22;53952;51.980;5.934;2022-07-17T11:47:10;26.20;43.80
38480;DHT22;53952;51.980;5.934;2022-07-17T11:49:37;26.20;43.70
38480;DHT22;53952;51.980;5.934;2022-07-17T11:52:16;26.30;43.70
38480;DHT22;53952;51.980;5.934;2022-07-17T11:54:50;26.30;43.50
38480;DHT22;53952;51.980;5.934;2022-07-17T11:57:17;26.40;43.50
38480;DHT22;53952;51.980;5.934;2022-07-17T11:59:43;26.40;43.40
38480;DHT22;53952;51.980;5.934;2022-07-17T12:02:14;26.40;43.30
38480;DHT22;53952;51.980;5.934;2022-07-17T12:04:57;26.50;43.30
38480;DHT22;53952;51.980;5.934;2022-07-17T12:07:24;26.50;43.10
38480;DHT22;53952;51.980;5.934;2022-07-17T12:09:52;26.50;43.10
38480;DHT22;53952;51.980;5.934;2022-07-17T12:12:23;26.60;43.10
38480;DHT22;53952;51.980;5.934;2022-07-17T12:14:52;26.60;43.00
38480;DHT22;53952;51.980;5.934;2022-07-17T12:17:18;26.60;43.00
38480;DHT22;53952;51.980;5.934;2022-07-17T12:19:44;26.60;42.90
38480;DHT22;53952;51.980;5.934;2022-07-17T12:22:09;26.70;42.80
38480;DHT22;53952;51.980;5.934;2022-07-17T12:24:44;26.70;42.60
38480;DHT22;53952;51.980;5.934;2022-07-17T12:27:12;26.80;42.40
38480;DHT22;53952;51.980;5.934;2022-07-17T12:29:40;26.80;42.20
38480;DHT22;53952;51.980;5.934;2022-07-17T12:32:07;26.90;42.10
38480;DHT22;53952;51.980;5.934;2022-07-17T12:34:39;26.90;41.90
38480;DHT22;53952;51.980;5.934;2022-07-17T12:37:21;27.00;42.30
38480;DHT22;53952;51.980;5.934;2022-07-17T12:39:48;27.10;42.90
38480;DHT22;53952;51.980;5.934;2022-07-17T12:42:15;27.00;43.20
38480;DHT22;53952;51.980;5.934;2022-07-17T12:44:41;27.10;43.20
38480;DHT22;53952;51.980;5.934;2022-07-17T12:47:11;27.10;43.10
38480;DHT22;53952;51.980;5.934;2022-07-17T12:49:36;27.10;43.10
38480;DHT22;53952;51.980;5.934;2022-07-17T12:52:03;27.20;43.30
38480;DHT22;53952;51.980;5.934;2022-07-17T12:54:28;27.20;43.20
38480;DHT22;53952;51.980;5.934;2022-07-17T12:56:57;27.20;42.90
38480;DHT22;53952;51.980;5.934;2022-07-17T12:59:22;27.20;42.90
38480;DHT22;53952;51.980;5.934;2022-07-17T13:01:48;27.30;42.70
38480;DHT22;53952;51.980;5.934;2022-07-17T13:04:14;27.30;42.60
38480;DHT22;53952;51.980;5.934;2022-07-17T13:06:40;27.30;42.60
38480;DHT22;53952;51.980;5.934;2022-07-17T13:09:06;27.40;42.50
38480;DHT22;53952;51.980;5.934;2022-07-17T13:11:32;27.40;42.50
38480;DHT22;53952;51.980;5.934;2022-07-17T13:13:58;27.40;42.40
38480;DHT22;53952;51.980;5.934;2022-07-17T13:16:24;27.40;42.40
38480;DHT22;53952;51.980;5.934;2022-07-17T13:18:50;27.50;42.60
38480;DHT22;53952;51.980;5.934;2022-07-17T13:21:16;27.50;43.30
38480;DHT22;53952;51.980;5.934;2022-07-17T13:23:42;27.50;42.70
38480;DHT22;53952;51.980;5.934;2022-07-17T13:26:07;27.60;42.80
38480;DHT22;53952;51.980;5.934;2022-07-17T13:28:33;27.50;42.70
38480;DHT22;53952;51.980;5.934;2022-07-17T13:30:59;27.60;43.00
38480;DHT22;53952;51.980;5.934;2022-07-17T13:33:25;27.60;43.00
38480;DHT22;53952;51.980;5.934;2022-07-17T13:35:51;27.60;43.00
38480;DHT22;53952;51.980;5.934;2022-07-17T13:38:17;27.60;43.00
38480;DHT22;53952;51.980;5.934;2022-07-17T13:40:43;27.70;43.20
38480;DHT22;53952;51.980;5.934;2022-07-17T13:43:08;27.70;43.20
38480;DHT22;53952;51.980;5.934;2022-07-17T13:45:34;27.70;43.10
38480;DHT22;53952;51.980;5.934;2022-07-17T13:48:00;27.70;43.10
38480;DHT22;53952;51.980;5.934;2022-07-17T13:50:27;27.70;42.90
38480;DHT22;53952;51.980;5.934;2022-07-17T13:52:52;27.70;42.80
38480;DHT22;53952;51.980;5.934;2022-07-17T13:55:18;27.80;43.00
38480;DHT22;53952;51.980;5.934;2022-07-17T13:57:44;27.80;43.00
38480;DHT22;53952;51.980;5.934;2022-07-17T14:00:11;27.80;43.10
38480;DHT22;53952;51.980;5.934;2022-07-17T14:02:37;27.80;43.10
38480;DHT22;53952;51.980;5.934;2022-07-17T14:05:05;27.90;43.20
38480;DHT22;53952;51.980;5.934;2022-07-17T14:07:31;27.90;43.20
38480;DHT22;53952;51.980;5.934;2022-07-17T14:09:57;27.90;43.10
38480;DHT22;53952;51.980;5.934;2022-07-17T14:12:23;27.90;43.10
38480;DHT22;53952;51.980;5.934;2022-07-17T14:14:48;27.90;43.10
38480;DHT22;53952;51.980;5.934;2022-07-17T14:17:14;27.90;43.10
38480;DHT22;53952;51.980;5.934;2022-07-17T14:19:43;27.90;43.00
38480;DHT22;53952;51.980;5.934;2022-07-17T14:22:09;28.00;43.00
38480;DHT22;53952;51.980;5.934;2022-07-17T14:24:35;28.00;43.00
38480;DHT22;53952;51.980;5.934;2022-07-17T14:27:01;28.00;43.10
38480;DHT22;53952;51.980;5.934;2022-07-17T14:29:26;28.00;43.10
38480;DHT22;53952;51.980;5.934;2022-07-17T14:31:52;28.00;42.80
38480;DHT22;53952;51.980;5.934;2022-07-17T14:34:18;28.00;42.10
38480;DHT22;53952;51.980;5.934;2022-07-17T14:36:44;28.00;41.70
38480;DHT22;53952;51.980;5.934;2022-07-17T14:39:10;28.00;41.40
38480;DHT22;53952;51.980;5.934;2022-07-17T14:41:37;28.00;41.30
38480;DHT22;53952;51.980;5.934;2022-07-17T14:44:03;28.10;41.30
38480;DHT22;53952;51.980;5.934;2022-07-17T14:46:29;28.10;41.10
38480;DHT22;53952;51.980;5.934;2022-07-17T14:48:54;28.10;41.10
38480;DHT22;53952;51.980;5.934;2022-07-17T14:51:20;28.10;41.00
38480;DHT22;53952;51.980;5.934;2022-07-17T14:53:46;28.10;40.90
38480;DHT22;53952;51.980;5.934;2022-07-17T14:56:12;28.20;40.80
38480;DHT22;53952;51.980;5.934;2022-07-17T14:58:38;28.20;40.80
38480;DHT22;53952;51.980;5.934;2022-07-17T15:01:04;28.20;40.70
38480;DHT22;53952;51.980;5.934;2022-07-17T15:03:29;28.20;40.80
38480;DHT22;53952;51.980;5.934;2022-07-17T15:05:56;28.20;40.70
38480;DHT22;53952;51.980;5.934;2022-07-17T15:08:22;28.20;40.70
38480;DHT22;53952;51.980;5.934;2022-07-17T15:10:48;28.20;40.70
38480;DHT22;53952;51.980;5.934;2022-07-17T15:13:13;28.30;40.70
38480;DHT22;53952;51.980;5.934;2022-07-17T15:15:39;28.30;40.70
38480;DHT22;53952;51.980;5.934;2022-07-17T15:18:05;28.30;40.70
38480;DHT22;53952;51.980;5.934;2022-07-17T15:20:30;28.30;40.70
38480;DHT22;53952;51.980;5.934;2022-07-17T15:22:56;28.30;40.60
38480;DHT22;53952;51.980;5.934;2022-07-17T15:25:22;28.30;40.40
38480;DHT22;53952;51.980;5.934;2022-07-17T15:27:47;28.30;40.40
38480;DHT22;53952;51.980;5.934;2022-07-17T15:30:13;28.30;40.30
38480;DHT22;53952;51.980;5.934;2022-07-17T15:32:39;28.40;40.30
38480;DHT22;53952;51.980;5.934;2022-07-17T15:35:05;28.40;40.30
38480;DHT22;53952;51.980;5.934;2022-07-17T15:37:32;28.40;40.20
38480;DHT22;53952;51.980;5.934;2022-07-17T15:39:58;28.40;40.20
38480;DHT22;53952;51.980;5.934;2022-07-17T15:42:27;28.40;40.20
38480;DHT22;53952;51.980;5.934;2022-07-17T15:44:53;28.40;40.10
38480;DHT22;53952;51.980;5.934;2022-07-17T15:47:19;28.40;40.10
38480;DHT22;53952;51.980;5.934;2022-07-17T15:49:45;28.40;40.00
38480;DHT22;53952;51.980;5.934;2022-07-17T15:52:10;28.40;40.00
38480;DHT22;53952;51.980;5.934;2022-07-17T15:54:36;28.40;40.00
38480;DHT22;53952;51.980;5.934;2022-07-17T15:57:02;28.50;40.00